sensor_id;sensor_type;location;lat;lon;timestamp;temperature;humidity
46720;DHT22;32452;51.382;-0.002;2023-06-10T00:01:25;18.00;93.80
46720;DHT22;32452;51.382;-0.002;2023-06-10T00:04:10;17.90;93.80
46720;DHT22;32452;51.382;-0.002;2023-06-10T00:06:56;17.90;93.90
46720;DHT22;32452;51.382;-0.002;2023-06-10T00:09:42;17.90;94.00
46720;DHT22;32452;51.382;-0.002;2023-06-10T00:12:28;17.90;94.10
46720;DHT22;32452;51.382;-0.002;2023-06-10T00:15:14;17.80;94.10
46720;DHT22;32452;51.382;-0.002;2023-06-10T00:17:59;17.80;94.20
46720;DHT22;32452;51.382;-0.002;2023-06-10T00:20:46;17.80;94.30
46720;DHT22;32452;51.382;-0.002;2023-06-10T00:23:33;17.70;94.40
46720;DHT22;32452;51.382;-0.002;2023-06-10T00:26:23;17.70;94.40
46720;DHT22;32452;51.382;-0.002;2023-06-10T00:29:09;17.70;94.50
46720;DHT22;32452;51.382;-0.002;2023-06-10T00:31:54;17.70;94.60
46720;DHT22;32452;51.382;-0.002;2023-06-10T00:34:42;17.60;94.70
46720;DHT22;32452;51.382;-0.002;2023-06-10T00:37:28;17.60;94.80
46720;DHT22;32452;51.382;-0.002;2023-06-10T00:40:14;17.60;94.80
46720;DHT22;32452;51.382;-0.002;2023-06-10T00:42:59;17.50;94.90
46720;DHT22;32452;51.382;-0.002;2023-06-10T00:45:45;17.50;95.00
46720;DHT22;32452;51.382;-0.002;2023-06-10T00:48:30;17.50;95.00
46720;DHT22;32452;51.382;-0.002;2023-06-10T00:51:17;17.40;95.10
46720;DHT22;32452;51.382;-0.002;2023-06-10T00:54:04;17.40;95.10
46720;DHT22;32452;51.382;-0.002;2023-06-10T00:56:50;17.30;95.20
46720;DHT22;32452;51.382;-0.002;2023-06-10T00:59:36;17.30;95.20
46720;DHT22;32452;51.382;-0.002;2023-06-10T01:02:24;17.30;95.30
46720;DHT22;32452;51.382;-0.002;2023-06-10T01:05:11;17.20;95.30
46720;DHT22;32452;51.382;-0.002;2023-06-10T01:10:59;17.10;95.50
46720;DHT22;32452;51.382;-0.002;2023-06-10T01:13:45;17.10;95.50
46720;DHT22;32452;51.382;-0.002;2023-06-10T01:17:11;17.10;95.60
46720;DHT22;32452;51.382;-0.002;2023-06-10T01:19:57;17.00;95.60
46720;DHT22;32452;51.382;-0.002;2023-06-10T01:22:43;17.00;95.60
46720;DHT22;32452;51.382;-0.002;2023-06-10T01:25:30;17.00;95.70
46720;DHT22;32452;51.382;-0.002;2023-06-10T01:28:36;16.90;95.70
46720;DHT22;32452;51.382;-0.002;2023-06-10T01:34:19;16.80;95.90
46720;DHT22;32452;51.382;-0.002;2023-06-10T01:37:07;16.80;95.90
46720;DHT22;32452;51.382;-0.002;2023-06-10T01:39:57;16.70;95.90
46720;DHT22;32452;51.382;-0.002;2023-06-10T01:42:43;16.70;96.00
46720;DHT22;32452;51.382;-0.002;2023-06-10T01:45:29;16.70;96.00
46720;DHT22;32452;51.382;-0.002;2023-06-10T01:48:14;16.60;96.10
46720;DHT22;32452;51.382;-0.002;2023-06-10T01:51:00;16.60;96.10
46720;DHT22;32452;51.382;-0.002;2023-06-10T01:53:45;16.60;96.10
46720;DHT22;32452;51.382;-0.002;2023-06-10T01:56:31;16.50;96.20
46720;DHT22;32452;51.382;-0.002;2023-06-10T01:59:16;16.50;96.30
46720;DHT22;32452;51.382;-0.002;2023-06-10T02:02:02;16.50;96.40
46720;DHT22;32452;51.382;-0.002;2023-06-10T02:04:48;16.40;96.40
46720;DHT22;32452;51.382;-0.002;2023-06-10T02:07:33;16.40;96.40
46720;DHT22;32452;51.382;-0.002;2023-06-10T02:10:19;16.40;96.50
46720;DHT22;32452;51.382;-0.002;2023-06-10T02:13:05;16.30;96.50
46720;DHT22;32452;51.382;-0.002;2023-06-10T02:15:51;16.30;96.60
46720;DHT22;32452;51.382;-0.002;2023-06-10T02:18:40;16.30;96.60
46720;DHT22;32452;51.382;-0.002;2023-06-10T02:21:28;16.30;96.70
46720;DHT22;32452;51.382;-0.002;2023-06-10T02:24:14;16.20;96.70
46720;DHT22;32452;51.382;-0.002;2023-06-10T02:27:00;16.20;96.80
46720;DHT22;32452;51.382;-0.002;2023-06-10T02:29:45;16.20;96.80
46720;DHT22;32452;51.382;-0.002;2023-06-10T02:32:31;16.20;97.00
46720;DHT22;32452;51.382;-0.002;2023-06-10T02:35:17;16.10;96.90
46720;DHT22;32452;51.382;-0.002;2023-06-10T02:38:02;16.10;97.00
46720;DHT22;32452;51.382;-0.002;2023-06-10T02:40:48;16.10;97.00
46720;DHT22;32452;51.382;-0.002;2023-06-10T02:43:34;16.10;97.10
46720;DHT22;32452;51.382;-0.002;2023-06-10T02:46:20;16.10;97.10
46720;DHT22;32452;51.382;-0.002;2023-06-10T02:49:06;16.00;97.10
46720;DHT22;32452;51.382;-0.002;2023-06-10T02:51:51;16.00;97.20
46720;DHT22;32452;51.382;-0.002;2023-06-10T02:54:42;16.00;97.30
46720;DHT22;32452;51.382;-0.002;2023-06-10T02:57:27;16.00;97.30
46720;DHT22;32452;51.382;-0.002;2023-06-10T03:00:13;16.00;97.70
46720;DHT22;32452;51.382;-0.002;2023-06-10T03:02:59;15.90;97.40
46720;DHT22;32452;51.382;-0.002;2023-06-10T03:05:48;15.90;97.40
46720;DHT22;32452;51.382;-0.002;2023-06-10T03:08:34;15.90;97.50
46720;DHT22;32452;51.382;-0.002;2023-06-10T03:11:20;15.90;97.50
46720;DHT22;32452;51.382;-0.002;2023-06-10T03:14:07;15.80;97.60
46720;DHT22;32452;51.382;-0.002;2023-06-10T03:16:53;15.80;97.60
46720;DHT22;32452;51.382;-0.002;2023-06-10T03:19:39;15.80;97.70
46720;DHT22;32452;51.382;-0.002;2023-06-10T03:22:25;15.70;97.80
46720;DHT22;32452;51.382;-0.002;2023-06-10T03:25:10;15.70;97.80
46720;DHT22;32452;51.382;-0.002;2023-06-10T03:27:59;15.70;97.90
46720;DHT22;32452;51.382;-0.002;2023-06-10T03:30:45;15.70;98.00
46720;DHT22;32452;51.382;-0.002;2023-06-10T03:33:30;15.60;98.00
46720;DHT22;32452;51.382;-0.002;2023-06-10T03:36:16;15.60;98.10
46720;DHT22;32452;51.382;-0.002;2023-06-10T03:39:02;15.60;98.10
46720;DHT22;32452;51.382;-0.002;2023-06-10T03:41:48;15.60;98.20
46720;DHT22;32452;51.382;-0.002;2023-06-10T03:44:33;15.60;98.50
46720;DHT22;32452;51.382;-0.002;2023-06-10T03:47:19;15.50;98.20
46720;DHT22;32452;51.382;-0.002;2023-06-10T03:50:05;15.50;98.30
46720;DHT22;32452;51.382;-0.002;2023-06-10T03:52:51;15.50;98.30
46720;DHT22;32452;51.382;-0.002;2023-06-10T03:55:36;15.50;98.40
46720;DHT22;32452;51.382;-0.002;2023-06-10T03:58:22;15.50;98.40
46720;DHT22;32452;51.382;-0.002;2023-06-10T04:01:07;15.50;98.40
46720;DHT22;32452;51.382;-0.002;2023-06-10T04:03:52;15.50;98.50
46720;DHT22;32452;51.382;-0.002;2023-06-10T04:06:39;15.50;98.50
46720;DHT22;32452;51.382;-0.002;2023-06-10T04:09:24;15.40;98.50
46720;DHT22;32452;51.382;-0.002;2023-06-10T04:12:10;15.40;98.60
46720;DHT22;32452;51.382;-0.002;2023-06-10T04:14:56;15.40;98.60
46720;DHT22;32452;51.382;-0.002;2023-06-10T04:17:42;15.40;98.60
46720;DHT22;32452;51.382;-0.002;2023-06-10T04:20:28;15.50;98.60
46720;DHT22;32452;51.382;-0.002;2023-06-10T04:23:14;15.50;98.60
46720;DHT22;32452;51.382;-0.002;2023-06-10T04:26:00;15.50;98.60
46720;DHT22;32452;51.382;-0.002;2023-06-10T04:28:45;15.50;98.60
46720;DHT22;32452;51.382;-0.002;2023-06-10T04:31:31;15.40;98.60
46720;DHT22;32452;51.382;-0.002;2023-06-10T04:34:17;15.40;98.60
46720;DHT22;32452;51.382;-0.002;2023-06-10T04:37:03;15.50;98.70
46720;DHT22;32452;51.382;-0.002;2023-06-10T04:39:49;15.50;98.80
46720;DHT22;32452;51.382;-0.002;2023-06-10T04:42:35;15.50;98.80
46720;DHT22;32452;51.382;-0.002;2023-06-10T04:45:20;15.50;98.70
46720;DHT22;32452;51.382;-0.002;2023-06-10T04:48:06;15.60;98.70
46720;DHT22;32452;51.382;-0.002;2023-06-10T04:50:53;15.60;98.60
46720;DHT22;32452;51.382;-0.002;2023-06-10T04:53:38;15.60;98.60
46720;DHT22;32452;51.382;-0.002;2023-06-10T04:56:25;15.60;98.60
46720;DHT22;32452;51.382;-0.002;2023-06-10T04:59:10;15.70;98.60
46720;DHT22;32452;51.382;-0.002;2023-06-10T05:01:56;15.70;98.60
46720;DHT22;32452;51.382;-0.002;2023-06-10T05:04:42;15.80;98.50
46720;DHT22;32452;51.382;-0.002;2023-06-10T05:07:29;15.90;98.40
46720;DHT22;32452;51.382;-0.002;2023-06-10T05:10:14;16.00;98.30
46720;DHT22;32452;51.382;-0.002;2023-06-10T05:13:00;16.00;98.20
46720;DHT22;32452;51.382;-0.002;2023-06-10T05:15:46;16.00;98.10
46720;DHT22;32452;51.382;-0.002;2023-06-10T05:18:32;16.10;98.10
46720;DHT22;32452;51.382;-0.002;2023-06-10T05:21:17;16.20;98.00
46720;DHT22;32452;51.382;-0.002;2023-06-10T05:24:03;16.20;98.00
46720;DHT22;32452;51.382;-0.002;2023-06-10T05:26:49;16.30;97.90
46720;DHT22;32452;51.382;-0.002;2023-06-10T05:29:35;16.30;97.90
46720;DHT22;32452;51.382;-0.002;2023-06-10T05:32:20;16.30;97.80
46720;DHT22;32452;51.382;-0.002;2023-06-10T05:35:07;16.40;97.80
46720;DHT22;32452;51.382;-0.002;2023-06-10T05:37:53;16.40;97.70
46720;DHT22;32452;51.382;-0.002;2023-06-10T05:40:38;16.50;97.70
46720;DHT22;32452;51.382;-0.002;2023-06-10T05:43:24;16.50;97.60
46720;DHT22;32452;51.382;-0.002;2023-06-10T05:46:09;16.60;97.50
46720;DHT22;32452;51.382;-0.002;2023-06-10T05:48:55;16.70;97.60
46720;DHT22;32452;51.382;-0.002;2023-06-10T05:51:41;16.70;97.40
46720;DHT22;32452;51.382;-0.002;2023-06-10T05:54:27;16.90;97.30
46720;DHT22;32452;51.382;-0.002;2023-06-10T05:57:14;16.90;97.10
46720;DHT22;32452;51.382;-0.002;2023-06-10T06:00:00;17.00;97.00
46720;DHT22;32452;51.382;-0.002;2023-06-10T06:02:46;17.10;96.90
46720;DHT22;32452;51.382;-0.002;2023-06-10T06:05:32;17.10;96.80
46720;DHT22;32452;51.382;-0.002;2023-06-10T06:08:20;17.20;96.80
46720;DHT22;32452;51.382;-0.002;2023-06-10T06:11:06;17.30;96.60
46720;DHT22;32452;51.382;-0.002;2023-06-10T06:13:51;17.40;96.40
46720;DHT22;32452;51.382;-0.002;2023-06-10T06:16:38;17.50;96.30
46720;DHT22;32452;51.382;-0.002;2023-06-10T06:19:24;17.60;96.10
46720;DHT22;32452;51.382;-0.002;2023-06-10T06:22:09;17.70;96.00
46720;DHT22;32452;51.382;-0.002;2023-06-10T06:24:57;17.80;96.10
46720;DHT22;32452;51.382;-0.002;2023-06-10T06:27:42;18.00;96.10
46720;DHT22;32452;51.382;-0.002;2023-06-10T06:30:28;18.30;95.90
46720;DHT22;32452;51.382;-0.002;2023-06-10T06:33:14;18.70;95.30
46720;DHT22;32452;51.382;-0.002;2023-06-10T06:35:59;19.20;94.50
46720;DHT22;32452;51.382;-0.002;2023-06-10T06:38:45;19.60;93.60
46720;DHT22;32452;51.382;-0.002;2023-06-10T06:41:31;20.00;92.90
46720;DHT22;32452;51.382;-0.002;2023-06-10T06:44:17;20.30;92.10
46720;DHT22;32452;51.382;-0.002;2023-06-10T06:47:02;20.70;91.20
46720;DHT22;32452;51.382;-0.002;2023-06-10T06:49:48;21.30;90.10
46720;DHT22;32452;51.382;-0.002;2023-06-10T06:52:34;22.10;87.30
46720;DHT22;32452;51.382;-0.002;2023-06-10T06:55:20;22.70;84.10
46720;DHT22;32452;51.382;-0.002;2023-06-10T06:58:06;23.40;81.30
46720;DHT22;32452;51.382;-0.002;2023-06-10T07:00:52;23.90;78.30
46720;DHT22;32452;51.382;-0.002;2023-06-10T07:03:37;24.30;75.50
46720;DHT22;32452;51.382;-0.002;2023-06-10T07:06:23;24.60;73.60
46720;DHT22;32452;51.382;-0.002;2023-06-10T07:09:09;24.80;71.10
46720;DHT22;32452;51.382;-0.002;2023-06-10T07:11:54;24.70;70.00
46720;DHT22;32452;51.382;-0.002;2023-06-10T07:14:40;24.80;69.50
46720;DHT22;32452;51.382;-0.002;2023-06-10T07:17:26;25.10;68.50
46720;DHT22;32452;51.382;-0.002;2023-06-10T07:20:12;25.40;67.60
46720;DHT22;32452;51.382;-0.002;2023-06-10T07:23:00;25.80;66.60
46720;DHT22;32452;51.382;-0.002;2023-06-10T07:25:45;26.20;65.60
46720;DHT22;32452;51.382;-0.002;2023-06-10T07:28:31;26.70;64.20
46720;DHT22;32452;51.382;-0.002;2023-06-10T07:31:16;27.00;62.50
46720;DHT22;32452;51.382;-0.002;2023-06-10T07:34:02;27.20;61.10
46720;DHT22;32452;51.382;-0.002;2023-06-10T07:36:48;27.30;60.20
46720;DHT22;32452;51.382;-0.002;2023-06-10T07:39:33;27.40;59.60
46720;DHT22;32452;51.382;-0.002;2023-06-10T07:42:19;27.60;59.30
46720;DHT22;32452;51.382;-0.002;2023-06-10T07:45:05;27.90;58.60
46720;DHT22;32452;51.382;-0.002;2023-06-10T07:47:51;28.10;57.90
46720;DHT22;32452;51.382;-0.002;2023-06-10T07:50:37;28.40;57.70
46720;DHT22;32452;51.382;-0.002;2023-06-10T07:53:23;28.60;56.50
46720;DHT22;32452;51.382;-0.002;2023-06-10T07:56:08;28.50;56.00
46720;DHT22;32452;51.382;-0.002;2023-06-10T07:58:54;28.50;55.80
46720;DHT22;32452;51.382;-0.002;2023-06-10T08:01:39;28.70;55.60
46720;DHT22;32452;51.382;-0.002;2023-06-10T08:04:25;29.10;55.20
46720;DHT22;32452;51.382;-0.002;2023-06-10T08:07:11;29.30;54.40
46720;DHT22;32452;51.382;-0.002;2023-06-10T08:09:56;29.50;53.60
46720;DHT22;32452;51.382;-0.002;2023-06-10T08:12:43;29.50;53.20
46720;DHT22;32452;51.382;-0.002;2023-06-10T08:15:28;29.50;52.70
46720;DHT22;32452;51.382;-0.002;2023-06-10T08:18:14;29.40;53.10
46720;DHT22;32452;51.382;-0.002;2023-06-10T08:21:00;29.40;53.10
46720;DHT22;32452;51.382;-0.002;2023-06-10T08:23:45;29.60;52.60
46720;DHT22;32452;51.382;-0.002;2023-06-10T08:26:31;29.80;52.10
46720;DHT22;32452;51.382;-0.002;2023-06-10T08:29:16;30.00;51.80
46720;DHT22;32452;51.382;-0.002;2023-06-10T08:32:02;30.30;51.30
46720;DHT22;32452;51.382;-0.002;2023-06-10T08:34:48;30.50;50.40
46720;DHT22;32452;51.382;-0.002;2023-06-10T08:37:34;30.60;50.00
46720;DHT22;32452;51.382;-0.002;2023-06-10T08:40:20;30.70;50.00
46720;DHT22;32452;51.382;-0.002;2023-06-10T08:43:07;30.80;49.90
46720;DHT22;32452;51.382;-0.002;2023-06-10T08:45:58;30.80;49.40
46720;DHT22;32452;51.382;-0.002;2023-06-10T08:48:45;30.80;49.10
46720;DHT22;32452;51.382;-0.002;2023-06-10T08:51:35;31.00;49.10
46720;DHT22;32452;51.382;-0.002;2023-06-10T08:54:27;31.30;48.40
46720;DHT22;32452;51.382;-0.002;2023-06-10T08:57:14;31.30;48.00
46720;DHT22;32452;51.382;-0.002;2023-06-10T09:00:00;31.60;48.20
46720;DHT22;32452;51.382;-0.002;2023-06-10T09:02:47;31.80;47.50
46720;DHT22;32452;51.382;-0.002;2023-06-10T09:05:34;32.10;46.50
46720;DHT22;32452;51.382;-0.002;2023-06-10T09:08:20;31.90;45.80
46720;DHT22;32452;51.382;-0.002;2023-06-10T09:11:06;31.80;46.10
46720;DHT22;32452;51.382;-0.002;2023-06-10T09:13:52;31.80;46.60
46720;DHT22;32452;51.382;-0.002;2023-06-10T09:16:38;32.00;45.90
46720;DHT22;32452;51.382;-0.002;2023-06-10T09:19:28;31.90;45.70
46720;DHT22;32452;51.382;-0.002;2023-06-10T09:22:14;31.90;45.50
46720;DHT22;32452;51.382;-0.002;2023-06-10T09:25:12;31.70;45.70
46720;DHT22;32452;51.382;-0.002;2023-06-10T09:27:58;31.60;46.10
46720;DHT22;32452;51.382;-0.002;2023-06-10T09:30:44;31.70;46.30
46720;DHT22;32452;51.382;-0.002;2023-06-10T09:33:30;32.00;45.90
46720;DHT22;32452;51.382;-0.002;2023-06-10T09:36:23;32.20;46.70
46720;DHT22;32452;51.382;-0.002;2023-06-10T09:39:15;32.50;45.30
46720;DHT22;32452;51.382;-0.002;2023-06-10T09:42:01;32.80;44.40
46720;DHT22;32452;51.382;-0.002;2023-06-10T09:44:51;32.90;44.60
46720;DHT22;32452;51.382;-0.002;2023-06-10T09:47:37;33.00;43.70
46720;DHT22;32452;51.382;-0.002;2023-06-10T09:50:23;33.00;43.30
46720;DHT22;32452;51.382;-0.002;2023-06-10T09:53:09;32.90;42.90
46720;DHT22;32452;51.382;-0.002;2023-06-10T09:55:55;32.90;42.80
46720;DHT22;32452;51.382;-0.002;2023-06-10T09:58:41;32.90;42.50
46720;DHT22;32452;51.382;-0.002;2023-06-10T10:01:30;33.00;42.80
46720;DHT22;32452;51.382;-0.002;2023-06-10T10:04:26;33.20;42.20
46720;DHT22;32452;51.382;-0.002;2023-06-10T10:07:12;33.20;41.40
46720;DHT22;32452;51.382;-0.002;2023-06-10T10:09:58;33.10;41.50
46720;DHT22;32452;51.382;-0.002;2023-06-10T10:12:46;33.20;41.60
46720;DHT22;32452;51.382;-0.002;2023-06-10T10:15:33;33.50;41.30
46720;DHT22;32452;51.382;-0.002;2023-06-10T10:18:24;33.60;41.30
46720;DHT22;32452;51.382;-0.002;2023-06-10T10:21:15;33.90;41.60
46720;DHT22;32452;51.382;-0.002;2023-06-10T10:24:03;33.90;40.90
46720;DHT22;32452;51.382;-0.002;2023-06-10T10:26:50;33.80;40.40
46720;DHT22;32452;51.382;-0.002;2023-06-10T10:29:39;33.80;40.10
46720;DHT22;32452;51.382;-0.002;2023-06-10T10:32:35;33.60;40.30
46720;DHT22;32452;51.382;-0.002;2023-06-10T10:35:26;33.70;40.30
46720;DHT22;32452;51.382;-0.002;2023-06-10T10:38:12;33.70;40.30
46720;DHT22;32452;51.382;-0.002;2023-06-10T10:40:58;33.80;40.60
46720;DHT22;32452;51.382;-0.002;2023-06-10T10:43:47;33.80;40.40
46720;DHT22;32452;51.382;-0.002;2023-06-10T10:46:43;33.90;40.70
46720;DHT22;32452;51.382;-0.002;2023-06-10T10:49:31;33.80;40.70
46720;DHT22;32452;51.382;-0.002;2023-06-10T10:52:17;33.80;40.50
46720;DHT22;32452;51.382;-0.002;2023-06-10T10:55:12;33.90;40.40
46720;DHT22;32452;51.382;-0.002;2023-06-10T11:00:44;33.80;40.70
46720;DHT22;32452;51.382;-0.002;2023-06-10T11:03:30;33.70;41.30
46720;DHT22;32452;51.382;-0.002;2023-06-10T11:06:18;33.80;41.70
46720;DHT22;32452;51.382;-0.002;2023-06-10T11:09:26;33.90;41.30
46720;DHT22;32452;51.382;-0.002;2023-06-10T11:12:22;34.00;41.20
46720;DHT22;32452;51.382;-0.002;2023-06-10T11:15:09;34.00;41.20
46720;DHT22;32452;51.382;-0.002;2023-06-10T11:21:04;33.70;41.50
46720;DHT22;32452;51.382;-0.002;2023-06-10T11:23:50;33.60;41.80
46720;DHT22;32452;51.382;-0.002;2023-06-10T11:26:43;33.70;41.70
46720;DHT22;32452;51.382;-0.002;2023-06-10T11:29:29;33.60;42.00
46720;DHT22;32452;51.382;-0.002;2023-06-10T11:32:17;33.60;42.30
46720;DHT22;32452;51.382;-0.002;2023-06-10T11:35:04;33.60;42.60
46720;DHT22;32452;51.382;-0.002;2023-06-10T11:37:49;33.60;42.00
46720;DHT22;32452;51.382;-0.002;2023-06-10T11:40:37;33.50;41.90
46720;DHT22;32452;51.382;-0.002;2023-06-10T11:43:22;33.40;41.80
46720;DHT22;32452;51.382;-0.002;2023-06-10T11:46:07;33.10;41.90
46720;DHT22;32452;51.382;-0.002;2023-06-10T11:48:55;33.00;42.30
46720;DHT22;32452;51.382;-0.002;2023-06-10T11:51:41;32.90;42.40
46720;DHT22;32452;51.382;-0.002;2023-06-10T11:54:34;32.90;42.70
46720;DHT22;32452;51.382;-0.002;2023-06-10T11:57:20;32.80;42.70
46720;DHT22;32452;51.382;-0.002;2023-06-10T12:00:06;32.60;43.00
46720;DHT22;32452;51.382;-0.002;2023-06-10T12:02:57;32.40;43.40
46720;DHT22;32452;51.382;-0.002;2023-06-10T12:06:00;32.20;43.70
46720;DHT22;32452;51.382;-0.002;2023-06-10T12:08:45;32.00;44.20
46720;DHT22;32452;51.382;-0.002;2023-06-10T12:11:31;31.90;44.60
46720;DHT22;32452;51.382;-0.002;2023-06-10T12:14:50;31.90;44.90
46720;DHT22;32452;51.382;-0.002;2023-06-10T12:17:37;31.80;44.80
46720;DHT22;32452;51.382;-0.002;2023-06-10T12:20:28;31.70;45.20
46720;DHT22;32452;51.382;-0.002;2023-06-10T12:23:15;31.70;45.50
46720;DHT22;32452;51.382;-0.002;2023-06-10T12:26:02;31.60;45.70
46720;DHT22;32452;51.382;-0.002;2023-06-10T12:28:51;31.60;45.90
46720;DHT22;32452;51.382;-0.002;2023-06-10T12:31:58;31.50;45.60
46720;DHT22;32452;51.382;-0.002;2023-06-10T12:34:44;31.60;45.60
46720;DHT22;32452;51.382;-0.002;2023-06-10T12:37:30;31.50;45.40
46720;DHT22;32452;51.382;-0.002;2023-06-10T12:40:26;31.40;45.90
46720;DHT22;32452;51.382;-0.002;2023-06-10T12:43:13;31.60;45.90
46720;DHT22;32452;51.382;-0.002;2023-06-10T12:46:10;31.60;45.20
46720;DHT22;32452;51.382;-0.002;2023-06-10T12:48:57;31.60;45.00
46720;DHT22;32452;51.382;-0.002;2023-06-10T12:51:43;31.60;44.60
46720;DHT22;32452;51.382;-0.002;2023-06-10T12:54:30;31.70;44.40
46720;DHT22;32452;51.382;-0.002;2023-06-10T12:57:16;31.70;44.10
46720;DHT22;32452;51.382;-0.002;2023-06-10T13:00:02;31.70;44.10
46720;DHT22;32452;51.382;-0.002;2023-06-10T13:02:50;31.80;43.90
46720;DHT22;32452;51.382;-0.002;2023-06-10T13:05:37;31.80;43.40
46720;DHT22;32452;51.382;-0.002;2023-06-10T13:08:24;31.80;42.80
46720;DHT22;32452;51.382;-0.002;2023-06-10T13:11:10;31.70;41.50
46720;DHT22;32452;51.382;-0.002;2023-06-10T13:13:55;31.70;41.40
46720;DHT22;32452;51.382;-0.002;2023-06-10T13:16:41;31.60;41.90
46720;DHT22;32452;51.382;-0.002;2023-06-10T13:19:28;31.60;42.20
46720;DHT22;32452;51.382;-0.002;2023-06-10T13:22:16;31.50;42.50
46720;DHT22;32452;51.382;-0.002;2023-06-10T13:25:04;31.50;42.10
46720;DHT22;32452;51.382;-0.002;2023-06-10T13:27:53;31.50;42.20
46720;DHT22;32452;51.382;-0.002;2023-06-10T13:30:39;31.60;42.40
46720;DHT22;32452;51.382;-0.002;2023-06-10T13:33:24;31.60;42.50
46720;DHT22;32452;51.382;-0.002;2023-06-10T13:36:11;31.60;42.60
46720;DHT22;32452;51.382;-0.002;2023-06-10T13:38:58;31.70;42.50
46720;DHT22;32452;51.382;-0.002;2023-06-10T13:41:44;31.50;42.50
46720;DHT22;32452;51.382;-0.002;2023-06-10T13:44:30;31.40;42.60
46720;DHT22;32452;51.382;-0.002;2023-06-10T13:47:19;31.30;43.10
46720;DHT22;32452;51.382;-0.002;2023-06-10T13:50:05;31.40;43.20
46720;DHT22;32452;51.382;-0.002;2023-06-10T13:52:51;31.40;43.30
46720;DHT22;32452;51.382;-0.002;2023-06-10T13:55:38;31.40;43.50
46720;DHT22;32452;51.382;-0.002;2023-06-10T13:58:23;31.40;43.70
46720;DHT22;32452;51.382;-0.002;2023-06-10T14:01:09;31.30;43.70
46720;DHT22;32452;51.382;-0.002;2023-06-10T14:03:55;31.10;43.70
46720;DHT22;32452;51.382;-0.002;2023-06-10T14:06:40;31.00;44.10
46720;DHT22;32452;51.382;-0.002;2023-06-10T14:09:26;31.00;44.50
46720;DHT22;32452;51.382;-0.002;2023-06-10T14:12:12;31.00;44.70
46720;DHT22;32452;51.382;-0.002;2023-06-10T14:14:57;30.80;44.50
46720;DHT22;32452;51.382;-0.002;2023-06-10T14:17:43;30.80;44.60
46720;DHT22;32452;51.382;-0.002;2023-06-10T14:20:28;30.60;44.90
46720;DHT22;32452;51.382;-0.002;2023-06-10T14:23:16;30.50;45.00
46720;DHT22;32452;51.382;-0.002;2023-06-10T14:26:02;30.40;45.40
46720;DHT22;32452;51.382;-0.002;2023-06-10T14:28:49;30.30;45.50
46720;DHT22;32452;51.382;-0.002;2023-06-10T14:31:35;30.30;45.70
46720;DHT22;32452;51.382;-0.002;2023-06-10T14:34:21;30.20;45.60
46720;DHT22;32452;51.382;-0.002;2023-06-10T14:37:08;30.20;45.60
46720;DHT22;32452;51.382;-0.002;2023-06-10T14:39:54;30.10;45.60
46720;DHT22;32452;51.382;-0.002;2023-06-10T14:42:40;30.00;46.00
46720;DHT22;32452;51.382;-0.002;2023-06-10T14:45:26;30.00;46.30
46720;DHT22;32452;51.382;-0.002;2023-06-10T14:48:12;30.00;46.20
46720;DHT22;32452;51.382;-0.002;2023-06-10T14:50:58;30.10;46.00
46720;DHT22;32452;51.382;-0.002;2023-06-10T14:53:43;30.10;45.60
46720;DHT22;32452;51.382;-0.002;2023-06-10T14:56:29;30.00;45.40
46720;DHT22;32452;51.382;-0.002;2023-06-10T14:59:15;29.90;45.90
46720;DHT22;32452;51.382;-0.002;2023-06-10T15:02:00;29.90;46.40
46720;DHT22;32452;51.382;-0.002;2023-06-10T15:04:46;29.80;46.40
46720;DHT22;32452;51.382;-0.002;2023-06-10T15:07:32;29.70;46.30
46720;DHT22;32452;51.382;-0.002;2023-06-10T15:10:17;29.80;46.30
46720;DHT22;32452;51.382;-0.002;2023-06-10T15:13:07;29.60;46.20
46720;DHT22;32452;51.382;-0.002;2023-06-10T15:15:52;29.50;46.40
46720;DHT22;32452;51.382;-0.002;2023-06-10T15:18:38;29.60;46.70
46720;DHT22;32452;51.382;-0.002;2023-06-10T15:21:23;29.50;46.80
46720;DHT22;32452;51.382;-0.002;2023-06-10T15:24:09;29.40;46.30
46720;DHT22;32452;51.382;-0.002;2023-06-10T15:26:55;29.30;46.30
46720;DHT22;32452;51.382;-0.002;2023-06-10T15:29:41;29.20;46.20
46720;DHT22;32452;51.382;-0.002;2023-06-10T15:32:26;29.10;46.20
46720;DHT22;32452;51.382;-0.002;2023-06-10T15:35:12;29.00;46.20
46720;DHT22;32452;51.382;-0.002;2023-06-10T15:37:58;29.00;46.50
46720;DHT22;32452;51.382;-0.002;2023-06-10T15:40:43;29.00;46.50
46720;DHT22;32452;51.382;-0.002;2023-06-10T15:43:29;29.00;46.60
46720;DHT22;32452;51.382;-0.002;2023-06-10T15:46:14;28.90;46.70
46720;DHT22;32452;51.382;-0.002;2023-06-10T15:49:00;28.80;46.70
46720;DHT22;32452;51.382;-0.002;2023-06-10T15:51:46;28.80;46.90
46720;DHT22;32452;51.382;-0.002;2023-06-10T15:54:36;28.70;47.10
46720;DHT22;32452;51.382;-0.002;2023-06-10T15:57:21;28.60;47.20
46720;DHT22;32452;51.382;-0.002;2023-06-10T16:00:11;28.60;47.10
46720;DHT22;32452;51.382;-0.002;2023-06-10T16:02:57;28.50;47.30
46720;DHT22;32452;51.382;-0.002;2023-06-10T16:05:42;28.50;47.40
46720;DHT22;32452;51.382;-0.002;2023-06-10T16:08:28;28.50;47.40
46720;DHT22;32452;51.382;-0.002;2023-06-10T16:11:13;28.50;47.50
46720;DHT22;32452;51.382;-0.002;2023-06-10T16:13:59;28.40;47.40
46720;DHT22;32452;51.382;-0.002;2023-06-10T16:16:45;28.40;47.30
46720;DHT22;32452;51.382;-0.002;2023-06-10T16:19:30;28.30;47.20
46720;DHT22;32452;51.382;-0.002;2023-06-10T16:22:16;28.30;47.30
46720;DHT22;32452;51.382;-0.002;2023-06-10T16:25:02;28.30;47.30
46720;DHT22;32452;51.382;-0.002;2023-06-10T16:27:48;28.20;47.20
46720;DHT22;32452;51.382;-0.002;2023-06-10T16:30:33;28.20;47.30
46720;DHT22;32452;51.382;-0.002;2023-06-10T16:33:19;28.10;47.30
46720;DHT22;32452;51.382;-0.002;2023-06-10T16:36:05;28.10;47.40
46720;DHT22;32452;51.382;-0.002;2023-06-10T16:38:51;28.10;47.20
46720;DHT22;32452;51.382;-0.002;2023-06-10T16:41:36;28.10;47.20
46720;DHT22;32452;51.382;-0.002;2023-06-10T16:44:22;28.00;47.10
46720;DHT22;32452;51.382;-0.002;2023-06-10T16:47:07;27.90;47.10
46720;DHT22;32452;51.382;-0.002;2023-06-10T16:49:53;27.80;47.30
46720;DHT22;32452;51.382;-0.002;2023-06-10T16:52:38;27.70;47.40
46720;DHT22;32452;51.382;-0.002;2023-06-10T16:55:24;27.70;47.50
46720;DHT22;32452;51.382;-0.002;2023-06-10T16:58:10;27.70;47.40
46720;DHT22;32452;51.382;-0.002;2023-06-10T17:01:03;27.70;47.60
46720;DHT22;32452;51.382;-0.002;2023-06-10T17:03:49;27.70;47.70
46720;DHT22;32452;51.382;-0.002;2023-06-10T17:06:35;27.60;47.60
46720;DHT22;32452;51.382;-0.002;2023-06-10T17:09:20;27.60;47.70
46720;DHT22;32452;51.382;-0.002;2023-06-10T17:12:06;27.50;47.80
46720;DHT22;32452;51.382;-0.002;2023-06-10T17:14:52;27.50;47.80
46720;DHT22;32452;51.382;-0.002;2023-06-10T17:17:38;27.50;47.60
46720;DHT22;32452;51.382;-0.002;2023-06-10T17:20:23;27.40;47.30
46720;DHT22;32452;51.382;-0.002;2023-06-10T17:23:09;27.30;47.40
46720;DHT22;32452;51.382;-0.002;2023-06-10T17:25:55;27.20;47.50
46720;DHT22;32452;51.382;-0.002;2023-06-10T17:28:41;27.10;47.90